Time;durP1;ratioP1;P1;durP2;ratioP2;P2;SDS_P1;SDS_P2;PMS_P1;PMS_P2;Temp;Humidity;BMP_temperature;BMP_pressure;BME280_temperature;BME280_humidity;BME280_pressure;Samples;Min_cycle;Max_cycle;Signal;HPM_P1;HPM_P2
2022/09/27 00:01:02;;;;;;;1.50;0.70;;;15.40;59.40;;;;;;4929509;28;20838;-73
2022/09/27 00:03:30;;;;;;;1.00;0.90;;;15.40;59.50;;;;;;4929033;29;20481;-73
2022/09/27 00:06:04;;;;;;;0.90;0.70;;;15.40;59.40;;;;;;4942835;28;20482;-74
2022/09/27 00:08:34;;;;;;;1.90;1.03;;;15.40;59.40;;;;;;4931741;29;20449;-73
2022/09/27 00:11:05;;;;;;;1.37;0.80;;;15.40;59.50;;;;;;4930113;29;20681;-73
2022/09/27 00:13:33;;;;;;;1.63;0.83;;;15.40;59.50;;;;;;4933057;29;20464;-73
2022/09/27 00:16:04;;;;;;;1.00;0.80;;;15.40;59.40;;;;;;4909547;29;20473;-73
2022/09/27 00:18:33;;;;;;;1.27;0.90;;;15.40;59.40;;;;;;4930145;29;20440;-73
2022/09/27 00:21:07;;;;;;;1.63;0.93;;;15.40;59.40;;;;;;4933117;28;20473;-73
2022/09/27 00:23:35;;;;;;;0.80;0.60;;;15.40;59.40;;;;;;4934121;28;20453;-72
2022/09/27 00:26:07;;;;;;;0.63;0.63;;;15.30;59.40;;;;;;4926829;29;20570;-73
2022/09/27 00:28:35;;;;;;;1.37;0.57;;;15.40;59.40;;;;;;4947599;28;21014;-74
2022/09/27 00:31:03;;;;;;;0.70;0.70;;;15.30;59.40;;;;;;4929519;29;20895;-73
2022/09/27 00:33:33;;;;;;;0.80;0.70;;;15.40;59.40;;;;;;4933381;29;20452;-73
2022/09/27 00:36:05;;;;;;;0.80;0.80;;;15.30;59.40;;;;;;4928343;29;20468;-73
2022/09/27 00:38:33;;;;;;;1.87;0.80;;;15.30;59.40;;;;;;4934178;29;20484;-73
2022/09/27 00:41:01;;;;;;;1.07;0.40;;;15.30;59.40;;;;;;4922403;29;20476;-73
2022/09/27 00:43:45;;;;;;;1.30;0.77;;;15.30;59.40;;;;;;4930057;29;20857;-73
2022/09/27 00:46:19;;;;;;;1.17;0.70;;;15.30;59.40;;;;;;4924994;28;20900;-73
2022/09/27 00:48:50;;;;;;;0.70;0.70;;;15.30;59.40;;;;;;4923143;29;20952;-74
2022/09/27 00:51:19;;;;;;;1.37;0.97;;;15.30;59.40;;;;;;4941995;28;20623;-73
2022/09/27 00:53:52;;;;;;;0.90;0.70;;;15.30;59.40;;;;;;4921206;29;20890;-73
2022/09/27 00:56:25;;;;;;;2.30;0.60;;;15.30;59.40;;;;;;4928543;29;20899;-73
2022/09/27 00:58:59;;;;;;;0.80;0.60;;;15.30;59.40;;;;;;4942139;28;20525;-73
2022/09/27 01:01:29;;;;;;;1.60;0.77;;;15.30;59.40;;;;;;4918508;28;20509;-73
2022/09/27 01:04:03;;;;;;;1.83;0.70;;;15.30;59.40;;;;;;4922157;29;20786;-73
2022/09/27 01:06:32;;;;;;;0.70;0.70;;;15.30;59.40;;;;;;4911563;29;20998;-73
2022/09/27 01:09:00;;;;;;;1.13;1.03;;;15.30;59.40;;;;;;4941912;28;20510;-73
2022/09/27 01:11:37;;;;;;;2.10;0.70;;;15.30;59.40;;;;;;4931660;28;20484;-73
2022/09/27 01:14:37;;;;;;;0.77;0.53;;;15.30;59.40;;;;;;4931445;29;20439;-73
2022/09/27 01:17:22;;;;;;;0.90;0.67;;;15.30;59.40;;;;;;4934421;28;20488;-73
2022/09/27 01:20:19;;;;;;;1.07;0.50;;;15.30;59.40;;;;;;4949256;28;20501;-73
2022/09/27 01:22:58;;;;;;;1.10;0.60;;;15.30;59.40;;;;;;4945839;28;20648;-73
2022/09/27 01:25:48;;;;;;;2.00;0.70;;;15.30;59.40;;;;;;4928394;29;21129;-73
2022/09/27 01:28:23;;;;;;;0.90;0.50;;;15.30;59.40;;;;;;4940401;28;20445;-73
2022/09/27 01:31:01;;;;;;;1.30;0.80;;;15.30;59.40;;;;;;4930834;29;20835;-73
2022/09/27 01:33:42;;;;;;;0.90;0.80;;;15.30;59.40;;;;;;4930577;29;20457;-73
2022/09/27 01:36:20;;;;;;;0.70;0.57;;;15.30;59.40;;;;;;4947086;28;20542;-73
2022/09/27 01:39:03;;;;;;;0.80;0.70;;;15.30;59.40;;;;;;4931349;29;20459;-74
2022/09/27 01:41:51;;;;;;;3.03;0.70;;;15.30;59.40;;;;;;4955182;28;20477;-73
2022/09/27 01:44:36;;;;;;;1.50;0.63;;;15.30;59.40;;;;;;4932083;29;20436;-73
2022/09/27 01:47:16;;;;;;;0.80;0.70;;;15.30;59.40;;;;;;4946216;28;20528;-73
2022/09/27 01:50:01;;;;;;;2.10;0.77;;;15.30;60.70;;;;;;4932063;29;20472;-73
2022/09/27 01:52:38;;;;;;;0.93;0.80;;;15.20;59.40;;;;;;4945993;28;20437;-73
2022/09/27 01:55:11;;;;;;;1.43;1.00;;;15.20;59.30;;;;;;4932252;29;20440;-71
2022/09/27 01:57:56;;;;;;;1.40;0.60;;;15.30;59.40;;;;;;4932426;29;20539;-73
2022/09/27 02:00:26;;;;;;;0.97;0.60;;;15.20;59.30;;;;;;4932107;29;20469;-73
2022/09/27 02:03:01;;;;;;;0.67;0.60;;;15.20;59.30;;;;;;4928412;29;20444;-72
2022/09/27 02:05:38;;;;;;;0.73;0.53;;;15.20;59.30;;;;;;4935081;28;20482;-73
2022/09/27 02:08:30;;;;;;;1.87;0.80;;;15.20;59.30;;;;;;4934346;29;20441;-73
2022/09/27 02:11:08;;;;;;;2.00;0.70;;;15.20;59.30;;;;;;4943312;28;20539;-74
2022/09/27 02:13:48;;;;;;;0.80;0.57;;;15.20;59.30;;;;;;4934084;29;20442;-73
2022/09/27 02:16:49;;;;;;;1.03;0.83;;;15.20;59.40;;;;;;4936449;29;20528;-73
2022/09/27 02:19:32;;;;;;;1.43;0.80;;;15.20;59.30;;;;;;4929564;29;20459;-73
2022/09/27 02:22:12;;;;;;;0.93;0.80;;;15.20;59.30;;;;;;4942074;29;20512;-73
2022/09/27 02:25:09;;;;;;;0.87;0.60;;;15.20;59.30;;;;;;4930241;29;20453;-65
2022/09/27 02:27:47;;;;;;;0.80;0.50;;;15.20;59.30;;;;;;4910010;29;20569;-67
2022/09/27 02:30:19;;;;;;;2.80;0.80;;;15.20;59.30;;;;;;4896272;29;20474;-69
2022/09/27 02:32:54;;;;;;;2.13;0.60;;;15.20;59.30;;;;;;4888630;29;20445;-69
2022/09/27 02:35:28;;;;;;;1.00;1.00;;;15.20;59.30;;;;;;4893103;29;21232;-69
2022/09/27 02:37:58;;;;;;;1.27;0.70;;;15.20;59.30;;;;;;4902516;29;20457;-69
2022/09/27 02:40:31;;;;;;;0.80;0.60;;;15.20;59.30;;;;;;4908668;29;20495;-69
2022/09/27 02:43:01;;;;;;;1.30;0.80;;;15.20;59.30;;;;;;4895826;29;20861;-69
2022/09/27 02:45:37;;;;;;;1.20;0.70;;;15.20;59.30;;;;;;4911213;29;20458;-69
2022/09/27 02:48:14;;;;;;;0.70;0.43;;;15.20;59.30;;;;;;4894388;29;20465;-69
2022/09/27 02:51:13;;;;;;;0.60;0.43;;;15.20;59.30;;;;;;4910966;29;20474;-69
2022/09/27 02:53:55;;;;;;;0.77;0.50;;;15.20;59.30;;;;;;4894712;29;20534;-69
2022/09/27 02:56:54;;;;;;;0.73;0.60;;;15.20;59.30;;;;;;4888347;29;20847;-68
2022/09/27 03:00:04;;;;;;;0.83;0.60;;;15.20;59.40;;;;;;4896352;29;20468;-68
2022/09/27 03:02:59;;;;;;;0.70;0.60;;;15.20;59.40;;;;;;4894170;29;20472;-68
2022/09/27 03:05:42;;;;;;;1.90;1.13;;;15.10;59.20;;;;;;4893136;29;20504;-68
2022/09/27 03:08:13;;;;;;;0.93;0.43;;;15.10;59.20;;;;;;4888319;29;20539;-69
2022/09/27 03:10:42;;;;;;;1.87;0.60;;;15.10;59.20;;;;;;4904963;29;20477;-69
2022/09/27 03:13:11;;;;;;;1.40;0.57;;;15.10;59.20;;;;;;4888294;29;20537;-68
2022/09/27 03:15:41;;;;;;;0.70;0.43;;;15.10;59.20;;;;;;4892528;29;21008;-68
2022/09/27 03:18:18;;;;;;;1.33;0.40;;;15.10;59.30;;;;;;4894793;29;20454;-68
2022/09/27 03:21:05;;;;;;;0.50;0.43;;;15.10;59.20;;;;;;4887255;29;20473;-68
2022/09/27 03:23:35;;;;;;;1.60;0.60;;;15.10;59.30;;;;;;4891628;29;20459;-68
2022/09/27 03:26:04;;;;;;;0.70;0.50;;;15.10;59.20;;;;;;4891044;29;20822;-68
2022/09/27 03:28:37;;;;;;;0.90;0.37;;;15.10;59.20;;;;;;4893453;29;20528;-69
2022/09/27 03:31:06;;;;;;;0.70;0.50;;;15.10;59.30;;;;;;4892468;29;20893;-69
2022/09/27 03:33:51;;;;;;;1.17;0.70;;;15.10;59.20;;;;;;4892466;29;20454;-68
2022/09/27 03:36:20;;;;;;;1.17;0.57;;;15.10;59.20;;;;;;4907506;29;20474;-68
2022/09/27 03:38:50;;;;;;;0.77;0.50;;;15.10;59.20;;;;;;4892043;29;20454;-68
2022/09/27 03:41:21;;;;;;;1.03;0.60;;;15.10;59.20;;;;;;4895943;29;20472;-69
2022/09/27 03:43:52;;;;;;;0.60;0.40;;;15.10;59.20;;;;;;4900707;29;20491;-69
2022/09/27 03:46:20;;;;;;;0.70;0.50;;;15.10;59.20;;;;;;4891418;29;20486;-69
2022/09/27 03:48:49;;;;;;;1.13;0.60;;;15.10;59.20;;;;;;4899137;29;20482;-69
2022/09/27 03:51:17;;;;;;;1.10;0.70;;;15.10;59.20;;;;;;4892082;29;20474;-69
2022/09/27 03:53:48;;;;;;;0.97;0.60;;;15.10;59.20;;;;;;4912989;29;20454;-69
2022/09/27 03:56:17;;;;;;;0.67;0.50;;;15.10;59.20;;;;;;4906683;29;20478;-69
2022/09/27 03:58:46;;;;;;;0.80;0.57;;;15.10;59.20;;;;;;4907076;29;20442;-69
2022/09/27 04:01:15;;;;;;;0.80;0.40;;;15.10;59.20;;;;;;4892120;29;20481;-69
2022/09/27 04:03:46;;;;;;;1.03;0.50;;;15.10;59.20;;;;;;4890857;29;20447;-69
2022/09/27 04:06:25;;;;;;;0.60;0.50;;;15.10;59.20;;;;;;4904081;29;20913;-69
2022/09/27 04:08:54;;;;;;;0.93;0.60;;;15.10;59.20;;;;;;4900638;29;20993;-68
2022/09/27 04:11:29;;;;;;;0.77;0.50;;;15.00;59.10;;;;;;4910918;29;20478;-69
2022/09/27 04:14:01;;;;;;;0.60;0.40;;;15.10;59.20;;;;;;4891785;29;20457;-68
2022/09/27 04:16:32;;;;;;;0.50;0.40;;;15.10;59.20;;;;;;4908794;29;20878;-68
2022/09/27 04:19:26;;;;;;;1.47;0.53;;;15.00;59.10;;;;;;4884886;29;20443;-68
2022/09/27 04:22:11;;;;;;;4.07;0.47;;;15.00;60.30;;;;;;4894377;29;20968;-68
2022/09/27 04:24:40;;;;;;;0.60;0.40;;;15.00;59.10;;;;;;4905591;29;20511;-68
2022/09/27 04:27:22;;;;;;;0.70;0.43;;;15.00;59.10;;;;;;4891477;29;20550;-68
2022/09/27 04:29:51;;;;;;;0.83;0.53;;;15.00;59.10;;;;;;4891975;29;20449;-68
2022/09/27 04:32:41;;;;;;;0.87;0.57;;;15.00;59.20;;;;;;4882844;29;20477;-68
2022/09/27 04:38:14;;;;;;;0.70;0.50;;;15.00;59.10;;;;;;4897424;29;20443;-68
2022/09/27 04:40:43;;;;;;;6.90;1.00;;;15.00;59.10;;;;;;4889009;29;20496;-69
2022/09/27 04:43:13;;;;;;;1.80;0.60;;;15.00;59.10;;;;;;4886346;29;20486;-69
2022/09/27 04:45:43;;;;;;;0.70;0.50;;;15.00;59.10;;;;;;4904334;29;20583;-68
2022/09/27 04:48:12;;;;;;;0.53;0.43;;;15.00;59.10;;;;;;4906021;29;20474;-68
2022/09/27 04:50:40;;;;;;;0.63;0.50;;;15.00;59.10;;;;;;4890985;29;20526;-69
2022/09/27 04:53:14;;;;;;;0.80;0.50;;;15.00;59.10;;;;;;4873472;29;20518;-68
2022/09/27 04:55:46;;;;;;;0.70;0.43;;;15.00;59.10;;;;;;4882719;29;20530;-68
2022/09/27 04:58:16;;;;;;;1.10;0.60;;;15.00;59.10;;;;;;4892073;29;20495;-68
2022/09/27 05:00:47;;;;;;;1.00;0.40;;;15.00;59.10;;;;;;4890770;29;20888;-68
2022/09/27 05:03:49;;;;;;;0.90;0.50;;;15.00;59.10;;;;;;4871693;29;20876;-68
2022/09/27 05:06:17;;;;;;;1.00;0.60;;;15.00;59.10;;;;;;4907029;29;20479;-68
2022/09/27 05:08:45;;;;;;;1.23;0.40;;;15.00;59.10;;;;;;4905768;29;20481;-68
2022/09/27 05:11:28;;;;;;;1.53;0.60;;;15.00;59.10;;;;;;4895141;29;20464;-68
2022/09/27 05:14:16;;;;;;;0.90;0.43;;;15.00;59.10;;;;;;4884864;29;20475;-69
2022/09/27 05:16:59;;;;;;;0.87;0.40;;;15.00;59.20;;;;;;4891439;29;21005;-67
2022/09/27 05:19:43;;;;;;;0.80;0.63;;;14.90;59.00;;;;;;4895909;29;20460;-67
2022/09/27 05:22:16;;;;;;;0.80;0.60;;;15.00;59.10;;;;;;4894930;29;20470;-68
2022/09/27 05:24:46;;;;;;;2.93;0.60;;;15.00;59.10;;;;;;4910238;29;20430;-67
2022/09/27 05:27:17;;;;;;;1.10;0.80;;;15.00;59.10;;;;;;4894527;29;20509;-68
2022/09/27 05:29:47;;;;;;;0.80;0.70;;;15.00;59.10;;;;;;4909411;29;20487;-68
2022/09/27 05:32:22;;;;;;;1.63;0.80;;;15.00;59.10;;;;;;4907546;29;20509;-68
2022/09/27 05:35:04;;;;;;;1.80;0.67;;;15.00;59.10;;;;;;4918133;29;21165;-68
2022/09/27 05:37:33;;;;;;;1.30;0.80;;;15.00;59.10;;;;;;4894658;29;20498;-68
2022/09/27 05:40:02;;;;;;;1.03;0.63;;;15.00;59.10;;;;;;4908103;29;20971;-68
2022/09/27 05:42:51;;;;;;;1.07;0.77;;;15.00;59.20;;;;;;4899584;29;20552;-69
2022/09/27 05:45:24;;;;;;;0.90;0.90;;;14.90;59.00;;;;;;4914865;29;20858;-68
2022/09/27 05:47:57;;;;;;;0.90;0.70;;;15.00;59.20;;;;;;4909734;29;20843;-68
2022/09/27 05:50:27;;;;;;;0.70;0.70;;;15.00;59.10;;;;;;4898614;29;21005;-68
2022/09/27 05:52:56;;;;;;;0.60;0.50;;;15.00;59.10;;;;;;4908109;29;20533;-69
2022/09/27 05:55:25;;;;;;;1.93;0.60;;;15.00;59.10;;;;;;4907503;29;20978;-68
2022/09/27 05:57:58;;;;;;;1.30;1.10;;;15.00;59.10;;;;;;4884337;29;20539;-69
2022/09/27 06:00:38;;;;;;;1.10;0.80;;;15.00;59.10;;;;;;4908162;29;21037;-68
2022/09/27 06:03:27;;;;;;;1.20;1.10;;;14.90;59.10;;;;;;4895260;29;20442;-68
2022/09/27 06:06:22;;;;;;;1.00;0.90;;;15.00;59.10;;;;;;4874241;29;20470;-68
2022/09/27 06:08:56;;;;;;;0.70;0.50;;;14.90;59.10;;;;;;4888965;29;20516;-68
2022/09/27 06:11:26;;;;;;;0.77;0.60;;;14.90;59.00;;;;;;4891161;29;20470;-69
2022/09/27 06:13:55;;;;;;;0.80;0.70;;;14.90;59.00;;;;;;4890491;29;20526;-68
2022/09/27 06:16:26;;;;;;;1.00;0.90;;;14.90;59.10;;;;;;4894206;29;20478;-68
2022/09/27 06:18:54;;;;;;;1.53;1.07;;;14.90;59.00;;;;;;4894342;29;20505;-68
2022/09/27 06:21:23;;;;;;;1.67;0.80;;;14.90;59.00;;;;;;4913710;29;20458;-68
2022/09/27 06:23:57;;;;;;;1.23;0.83;;;14.90;59.00;;;;;;4908459;29;20454;-68
2022/09/27 06:26:32;;;;;;;1.70;1.20;;;14.90;59.00;;;;;;4892994;29;20564;-67
2022/09/27 06:29:15;;;;;;;1.80;1.37;;;14.90;59.10;;;;;;4910404;29;20542;-68
2022/09/27 06:31:55;;;;;;;3.27;0.80;;;14.90;59.10;;;;;;4893629;29;20472;-68
2022/09/27 06:34:29;;;;;;;1.00;0.90;;;14.90;59.00;;;;;;4894597;29;20453;-68
2022/09/27 06:36:58;;;;;;;1.03;0.67;;;14.90;59.10;;;;;;4917799;29;20458;-68
2022/09/27 06:39:28;;;;;;;1.07;0.80;;;14.90;59.00;;;;;;4893988;29;20469;-67
2022/09/27 06:42:32;;;;;;;1.17;1.07;;;14.90;59.10;;;;;;4893483;29;20452;-67
2022/09/27 06:45:16;;;;;;;1.00;0.70;;;14.90;59.10;;;;;;4894746;29;20450;-68
2022/09/27 06:48:25;;;;;;;1.40;1.20;;;14.90;59.10;;;;;;4840641;29;20486;-67
2022/09/27 06:51:05;;;;;;;1.33;0.90;;;14.90;59.00;;;;;;4836728;29;21011;-71
2022/09/27 06:53:34;;;;;;;1.00;0.80;;;14.90;59.10;;;;;;4877436;29;20465;-71
2022/09/27 06:56:04;;;;;;;1.73;1.10;;;14.90;59.10;;;;;;4894523;29;21020;-71
2022/09/27 07:01:57;;;;;;;0.67;0.50;;;14.90;59.60;;;;;;4875671;29;20864;-72
2022/09/27 07:04:45;;;;;;;0.60;0.40;;;14.90;59.00;;;;;;4900413;29;20447;-72
2022/09/27 07:07:28;;;;;;;2.10;1.10;;;14.80;58.90;;;;;;4891951;29;20444;-72
2022/09/27 07:09:58;;;;;;;3.47;1.57;;;14.90;59.10;;;;;;4912409;29;20238;-72
2022/09/27 07:12:28;;;;;;;2.73;1.03;;;14.90;59.00;;;;;;4909331;29;20447;-72
2022/09/27 07:14:58;;;;;;;2.47;1.00;;;14.90;59.10;;;;;;4891283;29;20805;-72
2022/09/27 07:17:28;;;;;;;3.30;1.00;;;14.90;59.00;;;;;;4892661;29;21167;-72
2022/09/27 07:19:59;;;;;;;0.97;0.80;;;14.90;59.00;;;;;;4909727;29;20430;-72
2022/09/27 07:22:28;;;;;;;0.87;0.70;;;14.90;59.00;;;;;;4906645;29;20447;-72
2022/09/27 07:25:01;;;;;;;2.33;0.70;;;14.80;59.00;;;;;;4907237;29;21021;-72
2022/09/27 07:27:31;;;;;;;2.47;0.90;;;14.90;59.10;;;;;;4889934;29;20469;-72
2022/09/27 07:30:01;;;;;;;2.10;0.97;;;14.90;59.10;;;;;;4888997;29;20949;-72
2022/09/27 07:32:29;;;;;;;1.47;0.80;;;14.90;59.00;;;;;;4900611;29;20465;-72
2022/09/27 07:34:59;;;;;;;1.67;0.70;;;14.90;59.10;;;;;;4899914;29;20839;-72
2022/09/27 07:37:29;;;;;;;1.53;0.90;;;14.90;59.00;;;;;;4891208;29;20462;-72
2022/09/27 07:39:58;;;;;;;1.37;0.80;;;14.90;59.00;;;;;;4893044;29;20610;-72
2022/09/27 07:42:29;;;;;;;0.90;0.63;;;14.90;59.00;;;;;;4904700;29;20446;-72
2022/09/27 07:44:58;;;;;;;0.77;0.57;;;14.90;59.00;;;;;;4912263;29;20885;-72
2022/09/27 07:47:47;;;;;;;1.73;0.83;;;14.90;59.00;;;;;;4891523;29;20449;-72
2022/09/27 07:50:23;;;;;;;1.10;0.70;;;14.90;59.00;;;;;;4894786;29;20468;-72
2022/09/27 07:52:56;;;;;;;1.00;0.60;;;14.90;59.10;;;;;;4891119;29;20550;-72
2022/09/27 07:55:36;;;;;;;1.57;0.97;;;14.90;59.10;;;;;;4899180;29;20496;-72
2022/09/27 07:58:20;;;;;;;1.40;0.77;;;14.90;59.00;;;;;;4892846;29;20445;-72
2022/09/27 08:00:53;;;;;;;1.27;0.57;;;15.00;59.10;;;;;;4909642;29;20478;-72
2022/09/27 08:03:23;;;;;;;0.93;0.70;;;15.00;59.10;;;;;;4891250;29;20497;-71
2022/09/27 08:05:53;;;;;;;0.70;0.60;;;15.00;59.10;;;;;;4906229;29;20482;-71
2022/09/27 08:08:27;;;;;;;1.53;0.67;;;15.00;59.10;;;;;;4895876;29;20549;-71
2022/09/27 08:11:00;;;;;;;2.20;0.70;;;15.00;59.10;;;;;;4897915;29;20478;-72
2022/09/27 08:13:29;;;;;;;0.70;0.47;;;15.00;59.10;;;;;;4903976;29;20977;-71
2022/09/27 08:16:02;;;;;;;1.03;0.60;;;15.00;59.10;;;;;;4901479;29;20494;-71
2022/09/27 08:18:45;;;;;;;1.37;0.80;;;15.00;59.10;;;;;;4896964;29;20454;-71
2022/09/27 08:21:37;;;;;;;0.60;0.50;;;15.00;59.10;;;;;;4890245;29;20482;-71
2022/09/27 08:24:16;;;;;;;0.90;0.57;;;15.00;59.10;;;;;;4892103;29;20465;-71
2022/09/27 08:27:04;;;;;;;1.00;0.60;;;15.00;59.10;;;;;;4952049;23;20494;-64
2022/09/27 08:29:53;;;;;;;1.60;0.80;;;15.00;60.30;;;;;;4931392;29;20475;-66
2022/09/27 08:32:23;;;;;;;1.60;1.10;;;15.00;59.10;;;;;;4956553;28;21002;-67
2022/09/27 08:34:52;;;;;;;0.83;0.50;;;15.00;59.10;;;;;;4929924;29;20865;-66
2022/09/27 08:37:24;;;;;;;1.00;0.60;;;15.00;59.10;;;;;;4927469;29;20814;-65
2022/09/27 08:39:53;;;;;;;0.83;0.60;;;15.00;59.10;;;;;;4926855;29;20436;-66
2022/09/27 08:42:33;;;;;;;0.90;0.60;;;15.00;60.30;;;;;;4908938;29;20440;-66
2022/09/27 08:45:11;;;;;;;1.10;0.70;;;15.00;60.30;;;;;;4900782;29;20476;-67
2022/09/27 08:47:46;;;;;;;0.50;0.40;;;15.00;59.10;;;;;;4901683;29;20975;-65
2022/09/27 08:50:25;;;;;;;1.57;0.80;;;15.00;59.10;;;;;;4908349;29;20457;-66
2022/09/27 08:53:00;;;;;;;1.27;0.90;;;15.00;59.10;;;;;;4912396;29;20527;-67
2022/09/27 08:55:36;;;;;;;1.00;0.60;;;15.00;59.10;;;;;;4937027;29;20483;-65
2022/09/27 08:58:16;;;;;;;0.80;0.70;;;15.00;59.10;;;;;;4907488;29;20947;-65
2022/09/27 09:00:45;;;;;;;1.33;0.60;;;15.00;59.10;;;;;;4896764;29;20794;-65
2022/09/27 09:03:19;;;;;;;0.70;0.50;;;15.00;59.10;;;;;;4907532;29;20967;-66
2022/09/27 09:06:00;;;;;;;0.83;0.80;;;15.00;59.10;;;;;;4928585;29;21005;-66
2022/09/27 09:08:45;;;;;;;0.87;0.70;;;15.00;59.10;;;;;;4910055;29;20452;-65
2022/09/27 09:14:41;;;;;;;0.90;0.60;;;15.00;59.10;;;;;;4943144;29;20838;-65
2022/09/27 09:17:20;;;;;;;1.20;0.70;;;15.00;59.20;;;;;;4883738;29;20479;-66
2022/09/27 09:20:21;;;;;;;3.63;0.97;;;15.00;59.20;;;;;;4924265;29;20445;-66
2022/09/27 09:23:18;;;;;;;0.87;0.67;;;15.00;59.20;;;;;;4920562;29;20456;-67
2022/09/27 09:25:58;;;;;;;0.60;0.50;;;15.00;59.10;;;;;;4897419;29;20846;-65
2022/09/27 09:28:42;;;;;;;0.80;0.80;;;14.90;59.00;;;;;;4914450;29;20970;-66
2022/09/27 09:31:22;;;;;;;0.80;0.70;;;15.00;59.10;;;;;;4908120;29;20472;-66
2022/09/27 09:33:54;;;;;;;0.70;0.50;;;15.00;59.10;;;;;;4917559;29;20441;-66
2022/09/27 09:36:30;;;;;;;0.60;0.60;;;15.00;59.10;;;;;;4940696;28;20484;-67
2022/09/27 09:39:03;;;;;;;0.80;0.63;;;15.00;59.10;;;;;;4922016;29;20448;-67
2022/09/27 09:41:38;;;;;;;0.90;0.73;;;15.00;59.10;;;;;;4911516;29;20913;-65
2022/09/27 09:44:17;;;;;;;1.13;0.70;;;15.00;59.10;;;;;;4910923;29;20443;-65
2022/09/27 09:46:51;;;;;;;1.10;0.67;;;15.00;60.30;;;;;;4925585;29;20516;-65
2022/09/27 09:49:27;;;;;;;0.80;0.70;;;15.00;59.60;;;;;;4928251;29;20447;-66
2022/09/27 09:52:02;;;;;;;1.30;0.80;;;15.00;59.00;;;;;;4906952;29;20463;-66
2022/09/27 09:54:42;;;;;;;0.97;0.90;;;15.00;59.00;;;;;;4928100;29;20453;-66
2022/09/27 09:57:18;;;;;;;0.67;0.53;;;15.00;60.30;;;;;;4947766;29;20470;-65
2022/09/27 09:59:53;;;;;;;0.93;0.73;;;15.00;59.10;;;;;;4898309;29;20446;-64
2022/09/27 10:02:33;;;;;;;1.93;0.90;;;15.00;58.90;;;;;;4927707;29;20448;-66
2022/09/27 10:05:17;;;;;;;1.10;1.00;;;15.00;59.00;;;;;;4942702;29;20444;-65
2022/09/27 10:07:51;;;;;;;0.80;0.67;;;15.00;59.10;;;;;;4901787;29;20461;-65
2022/09/27 10:10:24;;;;;;;1.30;1.00;;;15.00;59.00;;;;;;4908441;29;20700;-66
2022/09/27 10:12:57;;;;;;;0.83;0.73;;;15.00;59.00;;;;;;4932001;29;20447;-67
2022/09/27 10:15:31;;;;;;;0.80;0.67;;;15.00;59.10;;;;;;4935925;29;20535;-65
2022/09/27 10:18:00;;;;;;;1.33;1.23;;;15.00;59.10;;;;;;4929223;29;20442;-65
2022/09/27 10:20:33;;;;;;;1.40;1.30;;;15.00;59.00;;;;;;4925531;29;20984;-67
2022/09/27 10:23:11;;;;;;;2.10;1.10;;;14.90;59.00;;;;;;4940843;28;20482;-67
2022/09/27 10:25:58;;;;;;;2.40;1.50;;;15.00;59.10;;;;;;4924303;28;20777;-66
2022/09/27 10:28:38;;;;;;;1.63;1.53;;;14.90;59.00;;;;;;4931936;29;20447;-68
2022/09/27 10:31:09;;;;;;;1.33;1.20;;;14.90;59.00;;;;;;4926116;29;20568;-67
2022/09/27 10:33:54;;;;;;;1.17;0.80;;;14.90;59.10;;;;;;4904690;29;20488;-66
2022/09/27 10:36:27;;;;;;;2.57;1.03;;;14.90;59.10;;;;;;4928315;29;20494;-65
2022/09/27 10:38:59;;;;;;;3.37;1.23;;;14.90;59.10;;;;;;4909842;29;20842;-67
2022/09/27 10:41:45;;;;;;;2.60;1.10;;;14.90;59.00;;;;;;4931186;28;20878;-66
2022/09/27 10:44:26;;;;;;;1.37;1.27;;;14.80;59.00;;;;;;4915096;29;20459;-66
2022/09/27 10:47:25;;;;;;;0.80;0.80;;;14.80;59.00;;;;;;4918982;29;20491;-66
2022/09/27 10:50:06;;;;;;;1.83;1.20;;;14.80;59.00;;;;;;4908695;29;20440;-66
2022/09/27 10:53:13;;;;;;;1.13;0.90;;;14.80;58.90;;;;;;4917224;29;20452;-67
2022/09/27 10:55:48;;;;;;;1.80;1.30;;;14.80;58.90;;;;;;4922867;29;21022;-67
2022/09/27 10:58:21;;;;;;;1.50;1.17;;;14.80;58.90;;;;;;4915587;29;20463;-66
2022/09/27 11:00:59;;;;;;;2.00;1.60;;;14.80;59.00;;;;;;4910823;29;21079;-66
2022/09/27 11:03:31;;;;;;;1.30;1.10;;;14.80;59.00;;;;;;4930891;29;20441;-66
2022/09/27 11:06:00;;;;;;;1.17;0.90;;;14.80;58.90;;;;;;4912158;29;20542;-65
2022/09/27 11:08:32;;;;;;;2.20;1.03;;;14.80;58.90;;;;;;4905510;29;20456;-66
2022/09/27 11:11:20;;;;;;;1.40;1.20;;;14.80;58.90;;;;;;4939615;29;20516;-67
2022/09/27 11:14:01;;;;;;;1.50;1.07;;;14.80;58.90;;;;;;4924771;29;20972;-67
2022/09/27 11:16:44;;;;;;;1.17;1.00;;;14.80;58.90;;;;;;4930342;29;20479;-65
2022/09/27 11:19:36;;;;;;;1.17;1.07;;;14.80;58.90;;;;;;4927766;29;20458;-67
2022/09/27 11:22:17;;;;;;;1.50;0.93;;;14.80;59.00;;;;;;4909864;29;20561;-66
2022/09/27 11:25:00;;;;;;;1.30;1.03;;;14.80;59.00;;;;;;4930019;29;20448;-67
2022/09/27 11:27:43;;;;;;;2.77;1.40;;;14.80;58.90;;;;;;4931184;29;20560;-65
2022/09/27 11:30:16;;;;;;;1.60;1.27;;;14.80;58.90;;;;;;4910243;29;20472;-67
2022/09/27 11:33:20;;;;;;;1.70;1.60;;;14.80;58.90;;;;;;4929415;29;21036;-67
2022/09/27 11:35:58;;;;;;;3.10;1.37;;;14.80;58.90;;;;;;4904762;29;20517;-67
2022/09/27 11:38:31;;;;;;;1.27;0.83;;;14.80;59.00;;;;;;4929531;29;20452;-68
2022/09/27 11:41:32;;;;;;;1.37;0.80;;;14.80;58.90;;;;;;4934559;29;20528;-66
2022/09/27 11:44:25;;;;;;;1.87;1.10;;;14.80;58.90;;;;;;4900249;29;20445;-65
2022/09/27 11:47:04;;;;;;;1.53;1.30;;;14.80;58.90;;;;;;4936146;28;20488;-66
2022/09/27 11:50:02;;;;;;;1.60;1.10;;;14.80;59.00;;;;;;4929638;29;20923;-65
2022/09/27 11:52:45;;;;;;;1.13;1.03;;;14.80;59.00;;;;;;4924871;29;20477;-66
2022/09/27 11:55:36;;;;;;;1.20;1.00;;;14.80;59.00;;;;;;4924802;29;20443;-66
2022/09/27 11:58:14;;;;;;;1.50;1.00;;;14.80;58.90;;;;;;4936102;29;20447;-67
2022/09/27 12:01:00;;;;;;;1.67;1.40;;;14.80;58.90;;;;;;4926044;29;20479;-66
2022/09/27 12:04:06;;;;;;;2.70;1.00;;;14.80;59.00;;;;;;4919394;29;20444;-66
2022/09/27 12:06:44;;;;;;;1.33;1.23;;;14.80;58.90;;;;;;4910340;29;20490;-67
2022/09/27 12:09:18;;;;;;;1.07;0.90;;;14.80;59.00;;;;;;4920757;29;20448;-67
2022/09/27 12:11:53;;;;;;;1.53;1.10;;;14.80;58.90;;;;;;4885898;29;20476;-67
2022/09/27 12:14:27;;;;;;;1.30;1.00;;;14.80;59.00;;;;;;4928492;29;20531;-68
2022/09/27 12:16:57;;;;;;;1.60;0.97;;;14.80;58.90;;;;;;4908502;29;20476;-66
2022/09/27 12:19:31;;;;;;;1.07;0.83;;;14.80;58.90;;;;;;4908807;29;20991;-66
2022/09/27 12:22:14;;;;;;;0.70;0.70;;;14.80;59.00;;;;;;4907313;29;20463;-67
2022/09/27 12:24:47;;;;;;;1.67;1.17;;;14.80;58.90;;;;;;4933526;28;20462;-65
2022/09/27 12:27:41;;;;;;;1.00;0.70;;;14.80;59.00;;;;;;4928718;29;20454;-66
2022/09/27 12:30:14;;;;;;;1.20;1.10;;;14.80;58.90;;;;;;4919291;29;20475;-67
2022/09/27 12:32:53;;;;;;;1.07;0.67;;;14.80;58.90;;;;;;4904203;29;20471;-66
2022/09/27 12:35:25;;;;;;;1.00;0.90;;;14.80;58.90;;;;;;4913876;29;20470;-67
2022/09/27 12:37:59;;;;;;;1.03;0.93;;;14.80;58.90;;;;;;4913076;29;20459;-66
2022/09/27 12:40:31;;;;;;;2.20;1.60;;;14.80;59.00;;;;;;4910537;29;20502;-67
2022/09/27 12:43:08;;;;;;;1.20;1.07;;;14.80;58.90;;;;;;4928003;29;20450;-66
2022/09/27 12:46:07;;;;;;;0.90;0.77;;;14.80;59.00;;;;;;4912171;29;20595;-67
2022/09/27 12:48:47;;;;;;;0.70;0.70;;;14.80;59.00;;;;;;4914670;29;20810;-67
2022/09/27 12:51:19;;;;;;;2.10;0.90;;;14.80;58.90;;;;;;4904470;29;20472;-67
2022/09/27 12:54:07;;;;;;;1.40;1.13;;;14.80;58.90;;;;;;4906909;29;20447;-66
2022/09/27 12:56:50;;;;;;;0.60;0.60;;;14.80;58.90;;;;;;4913099;29;20487;-66
2022/09/27 12:59:40;;;;;;;0.90;0.60;;;14.80;59.00;;;;;;4929020;29;21018;-66
2022/09/27 13:02:35;;;;;;;1.10;0.77;;;14.80;59.00;;;;;;4905808;29;20906;-66
2022/09/27 13:05:55;;;;;;;0.67;0.50;;;14.80;59.00;;;;;;4926341;29;20941;-66
2022/09/27 13:08:39;;;;;;;0.80;0.60;;;14.80;58.90;;;;;;4918827;29;20464;-67
2022/09/27 13:11:15;;;;;;;0.50;0.50;;;14.80;58.90;;;;;;4922691;29;20495;-66
2022/09/27 13:13:44;;;;;;;0.77;0.70;;;14.80;60.10;;;;;;4915237;29;20464;-66
2022/09/27 13:16:13;;;;;;;1.07;0.50;;;14.80;59.00;;;;;;4922349;29;20620;-67
2022/09/27 13:18:54;;;;;;;1.13;0.77;;;14.80;58.90;;;;;;4924085;29;20554;-67
2022/09/27 13:22:00;;;;;;;0.87;0.50;;;14.80;59.00;;;;;;4929584;29;20546;-66
2022/09/27 13:24:45;;;;;;;0.80;0.70;;;14.80;58.90;;;;;;4926021;29;20472;-66
2022/09/27 13:27:54;;;;;;;1.03;0.77;;;14.80;58.90;;;;;;4919521;29;20587;-67
2022/09/27 13:30:48;;;;;;;1.00;0.80;;;14.80;58.90;;;;;;4943558;29;21174;-65
2022/09/27 13:33:45;;;;;;;1.20;0.80;;;14.80;58.90;;;;;;4946835;29;20994;-66
2022/09/27 13:36:32;;;;;;;1.03;0.70;;;14.80;58.90;;;;;;4941125;29;20484;-66
2022/09/27 13:39:22;;;;;;;1.73;0.83;;;14.80;59.00;;;;;;4931605;28;20876;-66
2022/09/27 13:42:37;;;;;;;0.80;0.67;;;14.80;58.90;;;;;;4918172;29;21019;-65
2022/09/27 13:45:22;;;;;;;1.07;0.57;;;14.80;58.90;;;;;;4934778;29;20448;-65
2022/09/27 13:47:54;;;;;;;1.10;0.90;;;14.80;58.90;;;;;;4921077;29;20535;-67
2022/09/27 13:50:38;;;;;;;0.97;0.70;;;14.80;60.20;;;;;;4921808;29;20475;-67
2022/09/27 13:53:22;;;;;;;0.97;0.60;;;14.80;59.00;;;;;;4922380;29;20839;-65